Time;durP1;ratioP1;P1;durP2;ratioP2;P2;SDS_P1;SDS_P2;PMS_P1;PMS_P2;Temp;Humidity;BMP_temperature;BMP_pressure;BME280_temperature;BME280_humidity;BME280_pressure;Samples;Min_cycle;Max_cycle;Signal;HPM_P1;HPM_P2
2023/08/12 00:00:11;;;;;;;0.90;0.80;;;17.30;99.90;;;;;;5052971;28;20934;-71
2023/08/12 00:02:39;;;;;;;1.23;1.00;;;17.10;99.90;;;;;;5052430;28;20510;-71
2023/08/12 00:05:06;;;;;;;0.70;0.70;;;17.40;99.90;;;;;;5052827;28;20415;-72
2023/08/12 00:07:32;;;;;;;1.77;0.90;;;17.50;99.90;;;;;;5052605;28;20519;-71
2023/08/12 00:09:59;;;;;;;3.80;1.27;;;17.30;99.90;;;;;;5052957;28;20401;-70
2023/08/12 00:12:25;;;;;;;0.93;0.90;;;17.50;99.90;;;;;;5052382;28;20452;-71
2023/08/12 00:14:51;;;;;;;0.63;0.63;;;17.30;99.90;;;;;;5052845;28;20440;-71
2023/08/12 00:17:16;;;;;;;0.93;0.93;;;17.40;99.90;;;;;;5055928;28;20408;-70
2023/08/12 00:19:42;;;;;;;0.40;0.40;;;17.50;99.90;;;;;;5056390;28;20185;-71
2023/08/12 00:22:08;;;;;;;0.50;0.50;;;17.80;99.90;;;;;;5056104;28;20277;-72
2023/08/12 00:24:33;;;;;;;0.60;0.60;;;17.70;99.90;;;;;;5056576;28;20612;-71
2023/08/12 00:26:59;;;;;;;0.60;0.60;;;17.50;99.90;;;;;;5056251;28;20285;-70
2023/08/12 00:29:25;;;;;;;0.63;0.63;;;17.20;99.90;;;;;;5056339;28;20205;-70
2023/08/12 00:31:50;;;;;;;0.53;0.53;;;17.50;99.90;;;;;;5054708;28;20201;-72
2023/08/12 00:34:17;;;;;;;0.60;0.60;;;17.50;99.90;;;;;;5056085;28;20163;-71
2023/08/12 00:36:43;;;;;;;0.40;0.40;;;17.50;99.90;;;;;;5056066;28;20511;-71
2023/08/12 00:39:08;;;;;;;0.60;0.60;;;17.50;99.90;;;;;;5056050;28;20412;-70
2023/08/12 00:41:34;;;;;;;0.60;0.60;;;17.40;99.90;;;;;;5056093;28;20203;-71
2023/08/12 00:44:00;;;;;;;0.40;0.40;;;17.50;99.90;;;;;;5055915;28;20166;-70
2023/08/12 00:46:26;;;;;;;0.63;0.63;;;;;;;;;;5055876;28;20282;-70
2023/08/12 00:48:51;;;;;;;0.70;0.70;;;17.50;99.90;;;;;;5055552;28;20206;-72
2023/08/12 00:51:17;;;;;;;1.33;1.23;;;17.70;99.90;;;;;;5055670;28;20947;-72
2023/08/12 00:53:46;;;;;;;2.83;0.53;;;17.60;99.90;;;;;;5055740;28;20565;-70
2023/08/12 00:56:12;;;;;;;0.77;0.77;;;17.60;99.90;;;;;;5055885;28;20834;-72
2023/08/12 00:58:38;;;;;;;0.40;0.40;;;17.30;99.90;;;;;;5055549;28;20444;-71
2023/08/12 01:01:04;;;;;;;1.00;1.00;;;17.40;99.90;;;;;;5055559;28;20552;-71
2023/08/12 01:03:30;;;;;;;0.30;0.30;;;17.70;99.90;;;;;;5055591;28;20415;-72
2023/08/12 01:05:56;;;;;;;1.00;1.00;;;17.70;99.90;;;;;;5055533;28;20178;-71
2023/08/12 01:08:27;;;;;;;0.40;0.40;;;18.00;99.90;;;;;;5055641;28;20453;-72
2023/08/12 01:11:02;;;;;;;1.13;1.03;;;17.70;99.90;;;;;;5055322;28;20467;-71
2023/08/12 01:13:42;;;;;;;0.60;0.60;;;17.70;99.90;;;;;;5055365;28;20480;-70
2023/08/12 01:16:09;;;;;;;1.07;0.73;;;17.50;99.90;;;;;;5055364;28;20396;-71
2023/08/12 01:18:36;;;;;;;1.40;1.30;;;17.10;99.90;;;;;;5055345;28;20401;-71
2023/08/12 01:21:03;;;;;;;0.73;0.73;;;18.40;99.90;;;;;;5055022;28;20451;-72
2023/08/12 01:23:29;;;;;;;0.80;0.80;;;17.70;99.90;;;;;;5055137;28;20918;-70
2023/08/12 01:25:55;;;;;;;0.60;0.60;;;17.80;99.90;;;;;;5055089;28;20503;-71
2023/08/12 01:28:20;;;;;;;3.47;1.00;;;17.80;99.90;;;;;;5054129;28;20483;-70
2023/08/12 01:30:57;;;;;;;0.40;0.40;;;17.80;99.90;;;;;;5054953;28;20634;-71
2023/08/12 01:33:39;;;;;;;0.97;0.60;;;18.00;99.90;;;;;;5055212;28;20166;-71
2023/08/12 01:36:17;;;;;;;1.80;1.07;;;18.00;99.90;;;;;;5055043;28;20412;-71
2023/08/12 01:38:44;;;;;;;0.43;0.43;;;18.10;99.90;;;;;;5054647;28;20396;-72
2023/08/12 01:41:11;;;;;;;0.70;0.70;;;18.10;99.90;;;;;;5054556;28;20421;-70
2023/08/12 01:43:38;;;;;;;2.20;1.10;;;18.10;99.90;;;;;;5054785;28;20414;-71
2023/08/12 01:46:04;;;;;;;0.60;0.60;;;18.10;99.90;;;;;;5054886;28;20765;-71
2023/08/12 01:48:29;;;;;;;0.53;0.53;;;17.70;99.90;;;;;;5054338;28;20456;-71
2023/08/12 01:50:55;;;;;;;0.70;0.60;;;18.00;99.90;;;;;;5054626;28;20220;-71
2023/08/12 01:53:21;;;;;;;1.70;0.97;;;18.20;99.90;;;;;;5054568;28;20576;-70
2023/08/12 01:55:47;;;;;;;0.40;0.40;;;18.20;99.90;;;;;;5054799;28;20179;-72
2023/08/12 01:58:13;;;;;;;0.97;0.97;;;18.10;99.90;;;;;;5054460;28;20625;-71
2023/08/12 02:00:39;;;;;;;1.13;1.00;;;;;;;;;;5054517;28;20411;-71
2023/08/12 02:03:05;;;;;;;0.70;0.60;;;;;;;;;;5054113;28;20606;-72
2023/08/12 02:05:31;;;;;;;1.43;1.33;;;18.00;99.90;;;;;;5054336;28;20412;-70
2023/08/12 02:07:56;;;;;;;0.60;0.60;;;18.10;99.90;;;;;;5054230;28;20806;-71
2023/08/12 02:10:22;;;;;;;1.07;1.07;;;17.80;99.90;;;;;;5054372;28;20177;-72
2023/08/12 02:12:47;;;;;;;0.67;0.60;;;18.10;99.90;;;;;;5053862;28;20186;-71
2023/08/12 02:15:13;;;;;;;0.50;0.50;;;17.90;99.90;;;;;;5054398;28;20177;-71
2023/08/12 02:17:39;;;;;;;0.93;0.80;;;18.10;99.90;;;;;;5054283;28;20546;-71
2023/08/12 02:20:05;;;;;;;0.73;0.73;;;18.30;99.90;;;;;;5054286;28;20256;-72
2023/08/12 02:22:31;;;;;;;0.70;0.70;;;18.00;99.90;;;;;;5053633;28;20183;-71
2023/08/12 02:24:56;;;;;;;0.60;0.60;;;17.70;99.90;;;;;;5054214;28;20809;-72
2023/08/12 02:27:22;;;;;;;0.60;0.60;;;17.60;99.90;;;;;;5052686;28;20217;-72
2023/08/12 02:29:48;;;;;;;0.70;0.70;;;17.80;99.90;;;;;;5054022;28;20166;-71
2023/08/12 02:32:13;;;;;;;3.20;1.57;;;17.60;99.90;;;;;;5053582;28;20213;-71
2023/08/12 02:34:39;;;;;;;12.30;1.03;;;17.60;99.90;;;;;;5053909;28;20636;-71
2023/08/12 02:37:05;;;;;;;0.90;0.80;;;;;;;;;;5054003;28;20170;-72
2023/08/12 02:39:30;;;;;;;0.80;0.80;;;17.80;99.90;;;;;;5053747;28;20200;-70
2023/08/12 02:41:56;;;;;;;1.17;0.90;;;17.80;99.90;;;;;;5053602;28;20431;-71
2023/08/12 02:44:22;;;;;;;1.33;0.70;;;17.90;99.90;;;;;;5053592;28;20174;-70
2023/08/12 02:46:48;;;;;;;0.80;0.80;;;17.80;99.90;;;;;;5053595;28;20203;-71
2023/08/12 02:49:13;;;;;;;1.60;0.60;;;18.00;99.90;;;;;;5053527;28;20448;-71
2023/08/12 02:51:39;;;;;;;0.73;0.73;;;17.50;99.90;;;;;;5053313;28;20186;-72
2023/08/12 02:54:05;;;;;;;0.83;0.83;;;17.70;99.90;;;;;;5053571;28;20166;-71
2023/08/12 02:56:30;;;;;;;2.30;1.23;;;17.90;99.90;;;;;;5053611;28;20196;-71
2023/08/12 02:58:56;;;;;;;0.70;0.67;;;18.00;99.90;;;;;;5053565;28;20174;-71
2023/08/12 03:01:22;;;;;;;1.37;1.27;;;17.90;99.90;;;;;;5053257;28;20190;-71
2023/08/12 03:03:47;;;;;;;2.10;1.47;;;17.90;99.90;;;;;;5053255;28;20166;-71
2023/08/12 03:06:14;;;;;;;2.60;0.90;;;18.10;99.90;;;;;;5053405;28;20890;-71
2023/08/12 03:08:40;;;;;;;1.27;1.17;;;18.10;99.90;;;;;;5053234;28;20209;-71
2023/08/12 03:11:05;;;;;;;0.40;0.40;;;17.70;99.90;;;;;;5053108;28;20414;-71
2023/08/12 03:13:31;;;;;;;1.00;1.00;;;;;;;;;;5050785;28;20181;-70
2023/08/12 03:15:57;;;;;;;0.50;0.50;;;18.00;99.90;;;;;;5052714;28;20248;-72
2023/08/12 03:18:23;;;;;;;1.40;1.03;;;17.50;99.90;;;;;;5053240;28;20485;-72
2023/08/12 03:20:49;;;;;;;1.03;0.83;;;;;;;;;;5051233;28;20547;-71
2023/08/12 03:23:15;;;;;;;0.67;0.60;;;17.90;99.90;;;;;;5052843;28;20487;-71
2023/08/12 03:25:41;;;;;;;1.03;0.97;;;17.90;99.90;;;;;;5053152;28;20905;-71
2023/08/12 03:28:06;;;;;;;1.80;1.37;;;17.90;99.90;;;;;;5052750;28;20186;-71
2023/08/12 03:30:32;;;;;;;0.87;0.87;;;17.90;99.90;;;;;;5053139;28;20166;-71
2023/08/12 03:32:57;;;;;;;0.63;0.63;;;18.00;99.90;;;;;;5052892;28;20189;-70
2023/08/12 03:35:23;;;;;;;11.03;1.00;;;18.10;99.90;;;;;;5053334;28;20196;-70
2023/08/12 03:37:51;;;;;;;1.10;0.83;;;;;;;;;;5052949;28;20535;-72
2023/08/12 03:40:16;;;;;;;0.80;0.80;;;18.10;99.90;;;;;;5053181;28;20174;-71
2023/08/12 03:42:42;;;;;;;1.10;0.97;;;18.00;99.90;;;;;;5052633;28;20889;-71
2023/08/12 03:45:08;;;;;;;0.50;0.50;;;18.20;99.90;;;;;;5053100;28;20166;-72
2023/08/12 03:47:34;;;;;;;2.23;1.07;;;18.10;99.90;;;;;;5053120;28;20448;-72
2023/08/12 03:49:59;;;;;;;0.40;0.40;;;18.10;99.90;;;;;;5052769;28;20791;-70
2023/08/12 03:52:25;;;;;;;0.90;0.83;;;18.00;99.90;;;;;;5056504;28;20182;-69
2023/08/12 03:54:52;;;;;;;0.30;0.30;;;18.00;99.90;;;;;;5057057;28;20162;-72
2023/08/12 03:57:18;;;;;;;0.43;0.43;;;17.90;99.90;;;;;;5056700;28;20173;-70
2023/08/12 03:59:44;;;;;;;0.63;0.60;;;17.70;99.90;;;;;;5056805;28;20401;-70
2023/08/12 04:02:09;;;;;;;0.90;0.90;;;17.80;99.90;;;;;;5056432;28;20203;-72
2023/08/12 04:04:35;;;;;;;1.10;1.00;;;17.80;99.90;;;;;;5056658;28;20166;-72
2023/08/12 04:07:00;;;;;;;1.17;1.07;;;17.80;99.90;;;;;;5056699;28;20257;-72
2023/08/12 04:09:26;;;;;;;1.60;1.50;;;17.90;99.90;;;;;;5056783;28;20166;-71
2023/08/12 04:11:52;;;;;;;0.60;0.60;;;17.90;99.90;;;;;;5056332;28;20657;-70
2023/08/12 04:14:17;;;;;;;0.90;0.90;;;17.60;99.90;;;;;;5056569;28;20642;-70
2023/08/12 04:16:43;;;;;;;1.43;0.80;;;17.80;99.90;;;;;;5056547;28;20558;-72
2023/08/12 04:19:09;;;;;;;1.90;1.53;;;17.70;99.90;;;;;;5056482;28;20174;-70
2023/08/12 04:21:35;;;;;;;0.83;0.80;;;;;;;;;;5056093;28;20194;-71
2023/08/12 04:24:00;;;;;;;1.80;1.70;;;17.90;99.90;;;;;;5056474;28;20170;-70
2023/08/12 04:26:26;;;;;;;0.67;0.67;;;17.80;99.90;;;;;;5056370;28;20717;-71
2023/08/12 04:28:52;;;;;;;0.87;0.63;;;17.80;99.90;;;;;;5056153;28;20239;-71
2023/08/12 04:31:17;;;;;;;1.23;1.00;;;17.90;99.90;;;;;;5055929;28;20185;-70
2023/08/12 04:33:43;;;;;;;2.50;1.37;;;17.80;99.90;;;;;;5056192;28;20166;-71
2023/08/12 04:36:09;;;;;;;0.63;0.63;;;;;;;;;;5056146;28;20231;-71
2023/08/12 04:38:35;;;;;;;0.60;0.60;;;17.60;99.90;;;;;;5055919;28;20171;-70
2023/08/12 04:41:00;;;;;;;0.70;0.40;;;18.00;99.90;;;;;;5055580;28;20408;-72
2023/08/12 04:43:26;;;;;;;0.80;0.80;;;18.30;99.90;;;;;;5055775;28;20740;-72
2023/08/12 04:45:52;;;;;;;0.70;0.70;;;17.90;99.90;;;;;;5055842;28;20506;-70
2023/08/12 04:48:18;;;;;;;0.73;0.73;;;18.40;99.90;;;;;;5055820;28;20201;-72
2023/08/12 04:50:44;;;;;;;0.67;0.67;;;18.10;99.90;;;;;;5055499;28;20897;-71
2023/08/12 04:53:09;;;;;;;0.87;0.73;;;18.50;99.90;;;;;;5055536;28;20183;-72
2023/08/12 04:55:35;;;;;;;1.83;1.03;;;18.60;99.90;;;;;;5055786;28;20174;-71
2023/08/12 04:58:02;;;;;;;0.80;0.80;;;18.10;99.90;;;;;;5055564;28;20659;-70
2023/08/12 05:00:28;;;;;;;1.67;1.40;;;18.60;99.90;;;;;;5055781;28;20174;-71
2023/08/12 05:02:53;;;;;;;3.27;2.87;;;18.40;99.90;;;;;;5054170;28;20421;-72
2023/08/12 05:05:19;;;;;;;0.47;0.47;;;18.60;99.90;;;;;;5055581;28;20229;-70
2023/08/12 05:07:48;;;;;;;1.70;1.60;;;18.60;99.90;;;;;;5054407;28;20202;-72
2023/08/12 05:10:15;;;;;;;0.77;0.77;;;18.80;99.90;;;;;;5055611;28;20399;-72
2023/08/12 05:12:42;;;;;;;1.97;1.87;;;18.90;99.90;;;;;;5055144;28;20431;-72
2023/08/12 05:15:08;;;;;;;1.03;1.03;;;18.70;99.90;;;;;;5055589;28;20406;-71
2023/08/12 05:17:34;;;;;;;1.10;1.10;;;18.70;99.90;;;;;;5055414;28;20411;-72
2023/08/12 05:20:02;;;;;;;0.40;0.40;;;18.90;99.90;;;;;;5055443;28;20402;-70
2023/08/12 05:22:27;;;;;;;0.70;0.70;;;18.90;99.90;;;;;;5054985;28;20195;-72
2023/08/12 05:24:53;;;;;;;1.70;1.60;;;18.80;99.90;;;;;;5055101;28;20415;-70
2023/08/12 05:27:18;;;;;;;1.03;0.90;;;19.00;99.90;;;;;;5055211;28;20217;-71
2023/08/12 05:29:44;;;;;;;0.90;0.90;;;19.20;99.90;;;;;;5055077;28;20178;-71
2023/08/12 05:32:10;;;;;;;1.10;0.73;;;;;;;;;;5054947;28;20187;-70
2023/08/12 05:34:36;;;;;;;0.93;0.90;;;19.30;99.90;;;;;;5054958;28;20219;-70
2023/08/12 05:37:01;;;;;;;0.83;0.83;;;20.20;99.90;;;;;;5055068;28;20401;-70
2023/08/12 05:39:27;;;;;;;0.60;0.60;;;19.30;99.90;;;;;;5054998;28;20214;-72
2023/08/12 05:41:53;;;;;;;0.60;0.50;;;19.40;99.90;;;;;;5054613;28;20283;-70
2023/08/12 05:44:18;;;;;;;0.30;0.30;;;19.40;99.90;;;;;;5055047;28;20172;-71
2023/08/12 05:46:44;;;;;;;2.23;1.93;;;19.60;99.90;;;;;;5054703;28;20629;-70
2023/08/12 05:49:10;;;;;;;1.43;1.17;;;18.90;99.90;;;;;;5054541;28;20464;-70
2023/08/12 05:51:36;;;;;;;0.70;0.70;;;19.90;99.90;;;;;;5054546;28;20681;-71
2023/08/12 05:54:01;;;;;;;0.60;0.60;;;20.20;99.90;;;;;;5054638;28;20167;-72
2023/08/12 05:56:27;;;;;;;0.97;0.70;;;20.60;99.90;;;;;;5054760;28;20402;-71
2023/08/12 05:58:52;;;;;;;0.73;0.73;;;20.90;99.90;;;;;;5054577;28;20170;-71
2023/08/12 06:01:19;;;;;;;1.90;1.47;;;21.00;99.90;;;;;;5054339;28;20743;-71
2023/08/12 06:03:45;;;;;;;0.80;0.70;;;21.00;99.90;;;;;;5054621;28;20201;-71
2023/08/12 06:06:10;;;;;;;1.90;1.80;;;21.20;99.90;;;;;;5054530;28;20888;-72
2023/08/12 06:08:36;;;;;;;0.80;0.80;;;21.60;99.90;;;;;;5054243;28;20197;-72
2023/08/12 06:11:01;;;;;;;1.40;1.30;;;22.40;99.90;;;;;;5054266;28;20169;-71
2023/08/12 06:13:27;;;;;;;1.10;1.10;;;22.70;99.90;;;;;;5053966;28;20587;-71
2023/08/12 06:15:53;;;;;;;1.03;1.03;;;22.70;99.90;;;;;;5054317;28;20170;-71
2023/08/12 06:18:18;;;;;;;1.27;0.90;;;23.60;99.90;;;;;;5054295;28;20622;-71
2023/08/12 06:20:44;;;;;;;0.70;0.70;;;24.30;99.90;;;;;;5054118;28;20166;-72
2023/08/12 06:23:10;;;;;;;1.07;1.07;;;24.60;99.40;;;;;;5053901;28;20185;-70
2023/08/12 06:25:36;;;;;;;0.63;0.63;;;24.50;99.20;;;;;;5054034;28;20570;-72
2023/08/12 06:28:04;;;;;;;0.87;0.87;;;24.10;99.70;;;;;;5053984;28;20194;-71
2023/08/12 06:30:30;;;;;;;0.70;0.70;;;23.40;99.90;;;;;;5053986;28;20375;-71
2023/08/12 06:32:55;;;;;;;0.97;0.97;;;23.00;99.90;;;;;;5053609;28;20513;-70
2023/08/12 06:35:21;;;;;;;1.03;0.97;;;22.60;99.90;;;;;;5053842;28;20170;-70
2023/08/12 06:37:47;;;;;;;1.43;1.03;;;22.30;99.90;;;;;;5053959;28;20232;-70
2023/08/12 06:40:12;;;;;;;1.73;1.50;;;22.20;99.90;;;;;;5052529;28;20564;-70
2023/08/12 06:42:38;;;;;;;0.80;0.80;;;22.20;99.90;;;;;;5053542;28;20206;-70
2023/08/12 06:45:05;;;;;;;1.40;1.30;;;22.60;99.90;;;;;;5053793;28;20199;-71
2023/08/12 06:47:31;;;;;;;0.43;0.43;;;22.40;99.90;;;;;;5053607;28;20276;-71
2023/08/12 06:49:56;;;;;;;1.33;0.83;;;22.70;99.90;;;;;;5053493;28;20428;-71
2023/08/12 06:52:22;;;;;;;1.73;1.63;;;23.30;99.90;;;;;;5053232;28;20387;-71
2023/08/12 06:54:48;;;;;;;1.30;1.20;;;23.70;99.90;;;;;;5053875;28;20158;-71
2023/08/12 06:57:13;;;;;;;1.17;0.90;;;24.30;99.90;;;;;;5053710;28;20397;-71
2023/08/12 06:59:39;;;;;;;0.40;0.40;;;24.00;99.90;;;;;;5053588;28;20170;-71
2023/08/12 07:02:06;;;;;;;0.97;0.63;;;24.00;99.90;;;;;;5053080;28;20194;-71
2023/08/12 07:04:32;;;;;;;0.53;0.53;;;24.00;99.90;;;;;;5053508;28;20194;-70
2023/08/12 07:06:58;;;;;;;1.27;1.17;;;24.00;99.90;;;;;;5053298;28;20436;-71
2023/08/12 07:09:24;;;;;;;0.73;0.63;;;24.20;99.90;;;;;;5053385;28;20181;-71
2023/08/12 07:11:49;;;;;;;0.60;0.60;;;24.50;99.90;;;;;;5053039;28;20419;-71
2023/08/12 07:14:15;;;;;;;0.60;0.50;;;24.70;99.90;;;;;;5053387;28;20634;-71
2023/08/12 07:16:41;;;;;;;1.07;0.97;;;24.90;99.60;;;;;;5053497;28;20166;-70
2023/08/12 07:19:06;;;;;;;1.87;1.00;;;25.30;99.80;;;;;;5053363;28;20166;-71
2023/08/12 07:21:32;;;;;;;0.50;0.50;;;25.40;98.40;;;;;;5053078;28;20201;-70
2023/08/12 07:23:57;;;;;;;3.53;0.93;;;25.60;98.80;;;;;;5053418;28;20686;-70
2023/08/12 07:26:23;;;;;;;0.77;0.77;;;25.80;99.20;;;;;;5052752;28;20166;-70
2023/08/12 07:28:49;;;;;;;0.70;0.67;;;26.30;99.00;;;;;;5053298;28;20198;-72
2023/08/12 07:31:15;;;;;;;0.70;0.60;;;;;;;;;;5052995;28;20182;-72
2023/08/12 07:33:40;;;;;;;1.10;1.10;;;27.60;95.10;;;;;;5053134;28;20250;-71
2023/08/12 07:36:06;;;;;;;0.60;0.60;;;28.20;95.20;;;;;;5053063;28;20404;-71
2023/08/12 07:38:31;;;;;;;0.90;0.80;;;28.60;94.30;;;;;;5053438;28;20617;-71
2023/08/12 07:40:57;;;;;;;1.67;1.57;;;30.00;99.90;;;;;;5053111;28;20249;-72
2023/08/12 07:43:23;;;;;;;0.90;0.90;;;29.70;92.40;;;;;;5053108;28;20639;-71
2023/08/12 07:45:52;;;;;;;0.77;0.77;;;30.10;90.50;;;;;;5051809;28;20178;-70
2023/08/12 07:48:21;;;;;;;1.20;1.10;;;30.80;89.30;;;;;;5053024;28;20689;-71
2023/08/12 07:50:50;;;;;;;0.60;0.60;;;31.80;87.00;;;;;;5052770;28;20824;-72
2023/08/12 07:53:16;;;;;;;0.70;0.70;;;32.30;82.30;;;;;;5053001;28;20427;-71
2023/08/12 07:55:44;;;;;;;0.83;0.83;;;32.20;82.10;;;;;;5050769;28;20405;-72
2023/08/12 07:58:10;;;;;;;1.27;0.60;;;31.90;82.60;;;;;;5052727;28;20894;-71
2023/08/12 08:00:35;;;;;;;0.83;0.73;;;31.40;82.20;;;;;;5053504;28;20491;-72
2023/08/12 08:03:01;;;;;;;1.27;1.10;;;30.60;85.30;;;;;;5052815;28;20194;-70
2023/08/12 08:05:26;;;;;;;1.03;0.87;;;29.90;87.30;;;;;;5052964;28;20606;-73
2023/08/12 08:07:52;;;;;;;1.37;0.53;;;29.20;89.40;;;;;;5052866;28;20198;-74
2023/08/12 08:10:18;;;;;;;1.13;0.67;;;28.50;92.10;;;;;;5053100;28;20171;-74
2023/08/12 08:12:43;;;;;;;0.90;0.90;;;27.70;93.70;;;;;;5052848;28;20183;-74
2023/08/12 08:15:09;;;;;;;1.07;1.00;;;27.00;95.30;;;;;;5052889;28;20180;-74
2023/08/12 08:17:35;;;;;;;0.80;0.80;;;26.50;96.10;;;;;;5053329;28;20175;-73
2023/08/12 08:20:00;;;;;;;0.90;0.90;;;26.30;96.20;;;;;;5052820;28;20379;-74
2023/08/12 08:22:26;;;;;;;0.87;0.83;;;26.20;95.90;;;;;;5052709;28;20190;-73
2023/08/12 08:24:52;;;;;;;1.03;0.93;;;26.00;99.90;;;;;;5050597;28;20182;-73
2023/08/12 08:27:18;;;;;;;0.70;0.70;;;25.90;93.90;;;;;;5052495;28;20281;-74
2023/08/12 08:29:43;;;;;;;1.47;1.37;;;25.70;94.60;;;;;;5052209;28;20876;-74
2023/08/12 08:32:09;;;;;;;0.60;0.60;;;24.90;95.80;;;;;;5052334;28;20189;-73
2023/08/12 08:34:34;;;;;;;0.87;0.80;;;24.30;99.90;;;;;;5051348;28;20194;-74
2023/08/12 08:37:00;;;;;;;1.43;1.10;;;24.20;98.10;;;;;;5054133;28;20170;-72
2023/08/12 08:39:26;;;;;;;0.70;0.70;;;23.80;97.30;;;;;;5056249;28;20216;-74
2023/08/12 08:41:54;;;;;;;0.70;0.70;;;23.60;98.30;;;;;;5055727;28;20186;-73
2023/08/12 08:44:22;;;;;;;1.23;1.00;;;23.70;99.90;;;;;;5055956;28;20167;-73
2023/08/12 08:46:53;;;;;;;0.63;0.63;;;24.10;99.90;;;;;;5056043;28;20379;-73
2023/08/12 08:49:20;;;;;;;2.63;1.70;;;27.40;95.80;;;;;;5055669;28;20967;-74
2023/08/12 08:51:49;;;;;;;0.60;0.60;;;27.30;96.00;;;;;;5055835;28;20428;-73
2023/08/12 08:54:15;;;;;;;0.60;0.60;;;28.00;91.50;;;;;;5055684;28;20496;-74
2023/08/12 08:56:41;;;;;;;1.00;0.63;;;28.20;92.10;;;;;;5055835;28;20437;-74
2023/08/12 08:59:07;;;;;;;0.80;0.80;;;28.50;90.60;;;;;;5055686;28;20773;-73
2023/08/12 09:01:35;;;;;;;0.77;0.63;;;29.00;89.90;;;;;;5055557;28;20425;-74
2023/08/12 09:04:03;;;;;;;1.47;0.77;;;29.30;87.60;;;;;;5055776;28;20257;-74
2023/08/12 09:06:29;;;;;;;2.43;1.10;;;29.00;88.10;;;;;;5055652;28;20424;-74
2023/08/12 09:08:55;;;;;;;2.60;1.00;;;28.90;90.70;;;;;;5055581;28;20457;-74
2023/08/12 09:11:21;;;;;;;1.33;1.10;;;29.40;87.60;;;;;;5055327;28;20427;-73
2023/08/12 09:13:48;;;;;;;1.27;1.20;;;30.00;85.80;;;;;;5055553;28;20409;-74
2023/08/12 09:16:14;;;;;;;0.73;0.73;;;;;;;;;;5055691;28;20166;-73
2023/08/12 09:18:42;;;;;;;1.87;1.77;;;29.90;85.30;;;;;;5055337;28;20400;-74
2023/08/12 09:21:08;;;;;;;1.17;0.97;;;29.70;99.90;;;;;;5055084;28;21014;-74
2023/08/12 09:23:41;;;;;;;1.37;1.10;;;29.90;84.70;;;;;;5055250;28;20416;-73
2023/08/12 09:26:20;;;;;;;0.70;0.70;;;29.80;84.10;;;;;;5055972;28;21015;-74
2023/08/12 09:28:47;;;;;;;1.10;1.00;;;29.30;82.10;;;;;;5055319;28;20452;-74
2023/08/12 09:31:32;;;;;;;0.97;0.60;;;28.50;83.00;;;;;;5054900;28;20424;-73
2023/08/12 09:34:06;;;;;;;1.10;0.93;;;27.90;86.00;;;;;;5055025;28;20401;-73
2023/08/12 09:36:33;;;;;;;0.70;0.70;;;27.20;87.70;;;;;;5055026;28;20745;-74
2023/08/12 09:38:58;;;;;;;1.17;1.07;;;26.80;89.60;;;;;;5054812;28;20424;-73
2023/08/12 09:41:30;;;;;;;0.60;0.60;;;26.60;91.00;;;;;;5054715;28;20428;-73
2023/08/12 09:43:59;;;;;;;1.27;0.90;;;26.60;92.10;;;;;;5054898;28;20170;-73
2023/08/12 09:46:24;;;;;;;6.23;1.27;;;27.20;99.90;;;;;;5054912;28;20428;-74
2023/08/12 09:48:54;;;;;;;0.93;0.93;;;26.60;92.40;;;;;;5053944;28;20904;-74
2023/08/12 09:51:22;;;;;;;1.83;0.87;;;26.70;91.80;;;;;;5054635;28;20182;-73
2023/08/12 09:53:51;;;;;;;1.33;0.70;;;26.90;91.50;;;;;;5054964;28;20432;-73
2023/08/12 09:56:19;;;;;;;1.60;1.13;;;27.10;90.80;;;;;;5053323;28;20904;-74
2023/08/12 09:58:48;;;;;;;1.40;1.30;;;27.20;90.40;;;;;;5054612;28;20424;-74
2023/08/12 10:01:19;;;;;;;0.73;0.73;;;27.00;90.40;;;;;;5054411;28;20428;-73
2023/08/12 10:03:49;;;;;;;1.37;1.27;;;26.70;90.90;;;;;;5054489;28;20905;-73
2023/08/12 10:06:15;;;;;;;1.10;1.00;;;26.40;92.40;;;;;;5054491;28;20417;-74
2023/08/12 10:08:41;;;;;;;0.90;0.80;;;26.40;93.80;;;;;;5054546;28;20874;-73
2023/08/12 10:11:08;;;;;;;1.00;1.00;;;26.30;99.90;;;;;;5054158;28;20401;-74
2023/08/12 10:13:34;;;;;;;1.20;1.10;;;26.70;94.00;;;;;;5054300;28;20833;-74
2023/08/12 10:16:00;;;;;;;1.17;0.90;;;27.40;91.50;;;;;;5054414;28;20445;-73
2023/08/12 10:18:28;;;;;;;0.73;0.60;;;29.70;87.60;;;;;;5054411;28;20170;-74
2023/08/12 10:20:57;;;;;;;0.70;0.70;;;30.60;96.40;;;;;;5053850;28;20839;-74
2023/08/12 10:23:25;;;;;;;1.87;1.77;;;30.70;83.40;;;;;;5054426;28;20466;-74
2023/08/12 10:25:54;;;;;;;0.67;0.67;;;31.40;79.90;;;;;;5052933;28;20413;-73
2023/08/12 10:28:20;;;;;;;0.87;0.87;;;31.40;76.40;;;;;;5054020;28;20481;-74
2023/08/12 10:30:46;;;;;;;0.73;0.73;;;30.70;75.90;;;;;;5054050;28;20738;-73
2023/08/12 10:33:16;;;;;;;2.10;1.27;;;29.60;76.00;;;;;;5054002;28;20932;-74
2023/08/12 10:35:46;;;;;;;1.33;1.23;;;28.80;81.00;;;;;;5053759;28;20491;-74
2023/08/12 10:38:21;;;;;;;1.20;1.10;;;28.30;83.30;;;;;;5053914;28;20781;-74
2023/08/12 10:40:47;;;;;;;1.07;1.07;;;27.80;85.10;;;;;;5053976;28;20892;-74
2023/08/12 10:43:13;;;;;;;0.87;0.87;;;27.60;85.30;;;;;;5053823;28;20424;-73
2023/08/12 10:45:48;;;;;;;0.80;0.80;;;27.20;85.20;;;;;;5053882;28;20419;-73
2023/08/12 10:48:23;;;;;;;0.70;0.70;;;26.90;86.60;;;;;;5053846;28;20196;-73
2023/08/12 10:50:53;;;;;;;1.33;0.90;;;26.70;88.80;;;;;;5053495;28;20399;-74
2023/08/12 10:53:31;;;;;;;1.30;1.20;;;26.50;88.90;;;;;;5053595;28;20371;-73
2023/08/12 10:56:04;;;;;;;2.40;1.10;;;26.50;90.20;;;;;;5053620;28;20367;-74
2023/08/12 10:58:35;;;;;;;0.50;0.50;;;26.60;90.00;;;;;;5053568;28;20375;-72
2023/08/12 11:01:01;;;;;;;0.73;0.60;;;26.60;99.90;;;;;;5052348;28;20394;-73
2023/08/12 11:03:32;;;;;;;0.83;0.80;;;26.00;91.00;;;;;;5053529;28;20401;-73
2023/08/12 11:05:59;;;;;;;1.27;1.17;;;26.00;91.40;;;;;;5053463;28;20421;-73
2023/08/12 11:08:27;;;;;;;1.30;0.90;;;26.30;90.50;;;;;;5053447;28;20438;-74
2023/08/12 11:10:56;;;;;;;0.90;0.87;;;26.70;99.90;;;;;;5053014;28;20897;-73
2023/08/12 11:13:22;;;;;;;2.77;1.87;;;;;;;;;;5053137;28;20376;-74
2023/08/12 11:15:49;;;;;;;0.63;0.63;;;27.10;89.30;;;;;;5053565;28;20441;-73
2023/08/12 11:18:20;;;;;;;0.90;0.90;;;27.40;88.40;;;;;;5052972;28;20447;-73
2023/08/12 11:20:48;;;;;;;1.20;1.10;;;27.90;84.90;;;;;;5052821;28;20507;-73
2023/08/12 11:23:14;;;;;;;1.70;1.00;;;27.80;99.90;;;;;;5053116;28;20407;-73
2023/08/12 11:25:42;;;;;;;1.00;1.00;;;27.90;84.70;;;;;;5052671;28;20499;-73
2023/08/12 11:28:08;;;;;;;1.27;1.17;;;27.80;85.20;;;;;;5053190;28;20504;-72
2023/08/12 11:30:34;;;;;;;1.10;1.10;;;27.70;86.50;;;;;;5052941;28;20889;-74
2023/08/12 11:33:01;;;;;;;1.03;0.97;;;27.90;86.60;;;;;;5053171;28;20224;-73
2023/08/12 11:35:27;;;;;;;0.90;0.90;;;28.10;88.10;;;;;;5052538;28;20677;-73
2023/08/12 11:37:55;;;;;;;1.33;0.90;;;28.10;85.00;;;;;;5052999;28;20416;-73
2023/08/12 11:40:22;;;;;;;1.37;0.87;;;28.10;85.70;;;;;;5053484;28;20170;-73
2023/08/12 11:42:49;;;;;;;1.30;1.20;;;28.00;84.50;;;;;;5052896;28;20399;-74
2023/08/12 11:45:26;;;;;;;1.50;1.40;;;27.70;86.60;;;;;;5052140;28;20405;-73
2023/08/12 11:47:52;;;;;;;1.87;1.77;;;27.70;87.20;;;;;;5051991;28;20486;-73
2023/08/12 11:50:19;;;;;;;0.90;0.90;;;27.60;87.40;;;;;;5052739;28;20834;-73
2023/08/12 11:52:46;;;;;;;1.10;1.07;;;27.60;87.90;;;;;;5052740;28;20936;-73
2023/08/12 11:55:12;;;;;;;1.30;1.27;;;27.70;86.70;;;;;;5053145;28;20404;-73
2023/08/12 11:57:40;;;;;;;1.70;1.50;;;27.60;89.40;;;;;;5052701;28;20405;-74
2023/08/12 12:00:13;;;;;;;1.27;1.17;;;27.70;87.90;;;;;;5053022;28;20405;-74
2023/08/12 12:02:46;;;;;;;2.33;1.53;;;27.80;86.50;;;;;;5052611;28;20440;-73
2023/08/12 12:05:13;;;;;;;1.33;1.20;;;27.60;85.50;;;;;;5052786;28;20396;-72
2023/08/12 12:07:39;;;;;;;1.60;0.80;;;27.10;99.90;;;;;;5052725;28;20462;-73
2023/08/12 12:10:05;;;;;;;1.17;1.00;;;27.40;86.40;;;;;;5051213;28;20742;-73
2023/08/12 12:12:35;;;;;;;1.10;1.00;;;27.00;86.00;;;;;;5054816;28;20515;-73
2023/08/12 12:15:00;;;;;;;0.73;0.73;;;26.90;87.30;;;;;;5055807;28;20408;-72
2023/08/12 12:17:26;;;;;;;1.17;1.17;;;;;;;;;;5056168;28;20412;-73
2023/08/12 12:19:56;;;;;;;1.50;1.10;;;26.70;86.60;;;;;;5056370;28;20371;-74
2023/08/12 12:22:33;;;;;;;0.73;0.73;;;26.70;86.90;;;;;;5056132;28;20420;-73
2023/08/12 12:25:07;;;;;;;1.40;1.03;;;26.80;88.10;;;;;;5055083;28;20455;-74
2023/08/12 12:27:33;;;;;;;0.93;0.93;;;27.00;87.20;;;;;;5056318;28;20437;-73
2023/08/12 12:30:00;;;;;;;2.10;1.90;;;27.20;87.50;;;;;;5056212;28;20391;-73
2023/08/12 12:32:26;;;;;;;1.23;1.13;;;27.70;87.40;;;;;;5055969;28;21026;-74
2023/08/12 12:34:53;;;;;;;1.43;1.33;;;27.70;86.60;;;;;;5056256;28;20495;-73
2023/08/12 12:37:18;;;;;;;1.50;1.40;;;27.90;85.80;;;;;;5054741;28;20407;-73
2023/08/12 12:39:45;;;;;;;2.00;1.13;;;;;;;;;;5056240;28;20383;-73
2023/08/12 12:42:11;;;;;;;0.70;0.70;;;;;;;;;;5055813;28;20194;-74
2023/08/12 12:44:37;;;;;;;0.93;0.93;;;;;;;;;;5055996;28;20393;-74
2023/08/12 12:47:03;;;;;;;2.73;1.17;;;28.10;84.40;;;;;;5056001;28;20404;-74
2023/08/12 12:49:29;;;;;;;1.57;1.37;;;28.20;84.90;;;;;;5055758;28;20428;-74